X  Chiuso Dati meteorologici dell'aviazione (METAR)     KCLT Charlotte Douglas International Airport
Temperatura
70°F Temperatura
66°F Punto di rugiada
88% Umidità



Vento
3 MPH
5 KM/O
1 M/S
3 KTS



250°
OSO
Condizioni attuali

Parzialmente nuvoloso Parzialmente nuvoloso
Pressione 1012.87 (hPa) - 29.91 (inHg)
Visibilità 8 (miglio) - 12.9 (km)
Aeroporto
Codice-Aeroporto KCLT

Posizione: Charlotte Douglas International Airport
Distanza: 14 (mi)

Metar:
KCLT 280852Z 25003KT 8SM FEW250 21/19 A2991 RMK AO2 SLP135 T02110194 53004 $

Ore: 28-05-2024 4:52 am EDT